createdAt,value
2023-02-12T00:00:45.198Z,97855.97
2023-02-12T00:03:13.303Z,97859.31
2023-02-12T00:05:42.160Z,97869.44
2023-02-12T00:08:11.273Z,97875.28
2023-02-12T00:10:43.085Z,97877.00
2023-02-12T00:13:11.074Z,97870.28
2023-02-12T00:15:41.627Z,97891.38
2023-02-12T00:18:09.575Z,97893.91
2023-02-12T00:20:38.405Z,97895.59
2023-02-12T00:23:06.639Z,97890.50
2023-02-12T00:25:34.955Z,97885.34
2023-02-12T00:28:03.007Z,97881.25
2023-02-12T00:30:30.957Z,97876.16
2023-02-12T00:33:00.186Z,97876.13
2023-02-12T00:35:28.198Z,97877.72
2023-02-12T00:37:56.090Z,97869.41
2023-02-12T00:40:24.018Z,97860.91
2023-02-12T00:42:51.898Z,97856.75
2023-02-12T00:45:20.004Z,97876.97
2023-02-12T00:47:47.943Z,97873.56
2023-02-12T00:50:17.572Z,97874.31
2023-02-12T00:52:45.467Z,97877.66
2023-02-12T00:55:13.367Z,97881.06
2023-02-12T00:57:41.231Z,97876.00
2023-02-12T01:00:10.194Z,97875.16
2023-02-12T01:02:38.740Z,97881.03
2023-02-12T01:05:07.298Z,97877.69
2023-02-12T01:07:38.527Z,97872.69
2023-02-12T01:10:08.387Z,97870.19
2023-02-12T01:12:36.435Z,97862.69
2023-02-12T01:15:04.476Z,97863.44
2023-02-12T01:17:32.378Z,97871.06
2023-02-12T01:20:00.323Z,97879.41
2023-02-12T01:22:28.195Z,97881.13
2023-02-12T01:24:57.644Z,97880.28
2023-02-12T01:27:25.513Z,97892.84
2023-02-12T01:29:53.685Z,97903.84
2023-02-12T01:32:21.899Z,97918.13
2023-02-12T01:34:49.828Z,97920.69
2023-02-12T01:37:17.828Z,97917.19
2023-02-12T01:39:45.863Z,97914.59
2023-02-12T01:42:18.675Z,97910.38
2023-02-12T01:44:47.780Z,97920.66
2023-02-12T01:47:18.502Z,97913.03
2023-02-12T01:49:49.011Z,97910.47
2023-02-12T01:52:20.200Z,97913.88
2023-02-12T01:54:48.616Z,97914.63
2023-02-12T01:57:18.530Z,97916.41
2023-02-12T01:59:47.170Z,97910.47
2023-02-12T02:02:15.321Z,97920.59
2023-02-12T02:04:45.910Z,97919.69
2023-02-12T02:07:14.060Z,97920.50
2023-02-12T02:09:42.346Z,97919.81
2023-02-12T02:12:27.448Z,97916.44
2023-02-12T02:14:58.559Z,97915.63
2023-02-12T02:17:38.843Z,97915.59
2023-02-12T02:20:40.360Z,97911.47
2023-02-12T02:23:34.760Z,97912.28
2023-02-12T02:26:24.231Z,97925.00
2023-02-12T02:29:01.044Z,97920.84
2023-02-12T02:31:34.267Z,97922.50
2023-02-12T02:34:07.343Z,97916.63
2023-02-12T02:36:50.799Z,97919.94
2023-02-12T02:39:30.161Z,97908.25
2023-02-12T02:42:01.230Z,97905.75
2023-02-12T02:44:33.942Z,97910.63
2023-02-12T02:47:06.619Z,97925.94
2023-02-12T02:49:38.666Z,97915.78
2023-02-12T02:52:10.874Z,97933.44
2023-02-12T02:54:41.481Z,97926.81
2023-02-12T02:57:13.229Z,97922.50
2023-02-12T02:59:44.113Z,97928.47
2023-02-12T03:02:16.732Z,97929.34
2023-02-12T03:04:47.680Z,97940.22
2023-02-12T03:07:19.095Z,97946.91
2023-02-12T03:09:48.831Z,97947.63
2023-02-12T03:12:19.679Z,97956.97
2023-02-12T03:14:49.705Z,97952.81
2023-02-12T03:17:22.257Z,97952.88
2023-02-12T03:19:53.323Z,97954.69
2023-02-12T03:22:24.333Z,97963.88
2023-02-12T03:24:55.443Z,97970.91
2023-02-12T03:27:28.639Z,97968.50
2023-02-12T03:29:58.602Z,97963.44
2023-02-12T03:32:32.263Z,97949.91
2023-02-12T03:35:10.573Z,97952.53
2023-02-12T03:37:41.753Z,97970.25
2023-02-12T03:40:15.222Z,97973.75
2023-02-12T03:42:48.487Z,97969.50
2023-02-12T03:45:22.778Z,97972.06
2023-02-12T03:47:55.043Z,97968.66
2023-02-12T03:50:26.620Z,97972.84
2023-02-12T03:52:54.607Z,97980.47
2023-02-12T03:55:22.482Z,97988.13
2023-02-12T03:57:54.312Z,97988.97
2023-02-12T04:00:23.965Z,97970.53
2023-02-12T04:02:53.922Z,97980.59
2023-02-12T04:05:23.489Z,97981.50
2023-02-12T04:07:51.929Z,97986.56
2023-02-12T04:10:21.439Z,97977.34
2023-02-12T04:12:54.599Z,97979.88
2023-02-12T04:15:41.316Z,97980.72
2023-02-12T04:18:13.717Z,97996.75
2023-02-12T04:20:49.709Z,98006.84
2023-02-12T04:23:25.939Z,98003.50
2023-02-12T04:25:59.147Z,98008.50
2023-02-12T04:28:35.922Z,98009.34
2023-02-12T04:31:06.730Z,98005.94
2023-02-12T04:33:42.983Z,98008.44
2023-02-12T04:36:14.862Z,98006.75
2023-02-12T04:38:45.478Z,98006.75
2023-02-12T04:41:13.627Z,98005.06
2023-02-12T04:43:41.577Z,98015.09
2023-02-12T04:46:09.955Z,98010.91
2023-02-12T04:48:50.488Z,98010.88
2023-02-12T04:51:18.350Z,98014.31
2023-02-12T04:53:46.217Z,98020.19
2023-02-12T04:56:14.602Z,98015.94
2023-02-12T04:58:43.010Z,98012.66
2023-02-12T05:01:11.869Z,98014.38
2023-02-12T05:03:41.166Z,98021.09
2023-02-12T05:06:10.228Z,98016.84
2023-02-12T05:08:38.106Z,98026.09
2023-02-12T05:11:07.355Z,98031.16
2023-02-12T05:13:35.443Z,98031.09
2023-02-12T05:16:05.409Z,98034.47
2023-02-12T05:18:33.387Z,98042.75
2023-02-12T05:21:03.446Z,98048.69
2023-02-12T05:23:33.365Z,98043.66
2023-02-12T05:26:02.941Z,98038.56
2023-02-12T05:28:31.144Z,98036.84
2023-02-12T05:31:01.746Z,98038.50
2023-02-12T05:33:29.983Z,98043.44
2023-02-12T05:36:03.894Z,98043.47
2023-02-12T05:38:33.196Z,98052.91
2023-02-12T05:41:04.357Z,98046.28
2023-02-12T05:43:32.322Z,98055.50
2023-02-12T05:46:00.959Z,98045.47
2023-02-12T05:48:29.600Z,98042.91
2023-02-12T05:51:03.200Z,98050.44
2023-02-12T05:53:31.244Z,98047.94
2023-02-12T05:56:10.584Z,98047.94
2023-02-12T05:58:38.706Z,98051.34
2023-02-12T06:01:11.301Z,98052.25
2023-02-12T06:03:39.330Z,98062.41
2023-02-12T06:06:07.365Z,98064.03
2023-02-12T06:08:35.536Z,98067.38
2023-02-12T06:11:04.324Z,98079.13
2023-02-12T06:13:34.017Z,98074.94
2023-02-12T06:16:02.191Z,98090.91
2023-02-12T06:18:30.501Z,98091.72
2023-02-12T06:20:58.444Z,98091.72
2023-02-12T06:23:26.818Z,98092.59
2023-02-12T06:25:57.882Z,98090.94
2023-02-12T06:28:25.972Z,98103.56
2023-02-12T06:30:55.347Z,98107.78
2023-02-12T06:33:23.298Z,98112.00
2023-02-12T06:35:51.201Z,98106.13
2023-02-12T06:38:19.164Z,98103.59
2023-02-12T06:40:47.213Z,98108.63
2023-02-12T06:43:15.103Z,98111.16
2023-02-12T06:45:43.014Z,98115.34
2023-02-12T06:48:12.266Z,98109.47
2023-02-12T06:50:40.117Z,98112.84
2023-02-12T06:53:07.990Z,98109.47
2023-02-12T06:55:36.173Z,98113.69
2023-02-12T06:58:04.089Z,98112.84
2023-02-12T07:00:32.048Z,98111.97
2023-02-12T07:03:00.004Z,98112.75
2023-02-12T07:05:29.310Z,98120.22
2023-02-12T07:07:57.218Z,98111.84
2023-02-12T07:10:25.096Z,98119.31
2023-02-12T07:12:53.000Z,98124.25
2023-02-12T07:15:20.884Z,98126.84
2023-02-12T07:17:48.781Z,98132.78
2023-02-12T07:20:16.833Z,98138.69
2023-02-12T07:22:46.085Z,98136.97
2023-02-12T07:25:14.011Z,98152.97
2023-02-12T07:27:41.875Z,98149.66
2023-02-12T07:30:10.743Z,98145.41
2023-02-12T07:32:38.601Z,98151.28
2023-02-12T07:35:07.033Z,98150.50
2023-02-12T07:37:35.091Z,98149.63
2023-02-12T07:40:04.876Z,98135.34
2023-02-12T07:42:32.828Z,98132.78
2023-02-12T07:45:00.736Z,98137.81
2023-02-12T07:47:28.659Z,98145.22
2023-02-12T07:49:56.731Z,98153.59
2023-02-12T07:52:24.649Z,98156.84
2023-02-12T07:54:52.527Z,98160.03
2023-02-12T07:57:21.852Z,98163.22
2023-02-12T07:59:49.732Z,98154.13
2023-02-12T08:02:17.633Z,98160.88
2023-02-12T08:04:45.655Z,98163.41
2023-02-12T08:07:13.572Z,98170.09
2023-02-12T08:09:41.531Z,98163.91
2023-02-12T08:12:09.456Z,98166.66
2023-02-12T08:14:38.716Z,98167.66
2023-02-12T08:17:06.578Z,98165.94
2023-02-12T08:19:34.526Z,98178.63
2023-02-12T08:22:03.144Z,98179.34
2023-02-12T08:24:31.482Z,98183.53
2023-02-12T08:26:59.679Z,98185.06
2023-02-12T08:29:29.912Z,98190.59
2023-02-12T08:32:00.767Z,98203.16
2023-02-12T08:34:30.419Z,98197.03
2023-02-12T08:36:59.135Z,98191.19
2023-02-12T08:39:28.721Z,98199.66
2023-02-12T08:41:57.430Z,98206.50
2023-02-12T08:44:25.547Z,98204.03
2023-02-12T08:46:55.626Z,98203.03
2023-02-12T08:49:27.451Z,98201.47
2023-02-12T08:51:57.053Z,98208.97
2023-02-12T08:54:26.775Z,98208.41
2023-02-12T08:56:56.725Z,98211.44
2023-02-12T08:59:24.680Z,98209.88
2023-02-12T09:01:53.327Z,98206.56
2023-02-12T09:04:25.374Z,98202.22
2023-02-12T09:06:53.822Z,98202.13
2023-02-12T09:09:21.908Z,98201.31
2023-02-12T09:11:50.060Z,98210.34
2023-02-12T09:14:19.050Z,98221.28
2023-02-12T09:16:47.192Z,98219.13
2023-02-12T09:19:15.813Z,98223.25
2023-02-12T09:21:45.083Z,98226.69
2023-02-12T09:24:12.975Z,98240.00
2023-02-12T09:26:40.871Z,98231.34
2023-02-12T09:29:08.761Z,98229.75
2023-02-12T09:31:36.859Z,98232.41
2023-02-12T09:34:06.599Z,98234.91
2023-02-12T09:36:36.075Z,98239.81
2023-02-12T09:39:05.654Z,98241.97
2023-02-12T09:42:05.887Z,98240.25
2023-02-12T09:44:38.403Z,98249.22
2023-02-12T09:47:10.942Z,98252.78
2023-02-12T09:49:58.187Z,98261.50
2023-02-12T09:52:28.578Z,98261.59
2023-02-12T09:54:58.244Z,98259.03
2023-02-12T09:57:31.175Z,98265.91
2023-02-12T10:00:00.830Z,98268.16
2023-02-12T10:02:28.782Z,98269.28
2023-02-12T10:05:01.674Z,98256.69
2023-02-12T10:07:51.994Z,98270.09
2023-02-12T10:10:32.565Z,98276.81
2023-02-12T10:13:05.418Z,98281.16
2023-02-12T10:15:43.170Z,98280.31
2023-02-12T10:18:35.999Z,98288.69
2023-02-12T10:21:08.876Z,98284.41
2023-02-12T10:24:00.743Z,98280.25
2023-02-12T10:26:33.289Z,98276.84
2023-02-12T10:29:10.742Z,98273.59
2023-02-12T10:31:42.182Z,98269.34
2023-02-12T10:34:17.436Z,98268.28
2023-02-12T10:36:47.372Z,98267.50
2023-02-12T10:39:21.438Z,98265.16
2023-02-12T10:41:55.898Z,98266.66
2023-02-12T10:44:23.775Z,98255.66
2023-02-12T10:46:51.764Z,98257.41
2023-02-12T10:49:21.394Z,98259.22
2023-02-12T10:52:05.050Z,98260.81
2023-02-12T10:54:36.054Z,98255.63
2023-02-12T10:57:18.684Z,98261.66
2023-02-12T10:59:48.228Z,98253.75
2023-02-12T11:02:30.782Z,98261.34
2023-02-12T11:05:00.377Z,98256.47
2023-02-12T11:07:29.319Z,98260.53
2023-02-12T11:09:58.263Z,98258.91
2023-02-12T11:12:37.705Z,98255.72
2023-02-12T11:15:13.880Z,98253.03
2023-02-12T11:17:43.692Z,98256.28
2023-02-12T11:20:34.744Z,98261.22
2023-02-12T11:23:05.885Z,98247.94
2023-02-12T11:25:36.049Z,98253.72
2023-02-12T11:28:14.642Z,98251.94
2023-02-12T11:30:51.523Z,98254.38
2023-02-12T11:33:28.018Z,98250.09
2023-02-12T11:35:58.035Z,98253.63
2023-02-12T11:38:29.439Z,98250.06
2023-02-12T11:41:00.596Z,98263.63
2023-02-12T11:43:31.504Z,98256.06
2023-02-12T11:46:00.706Z,98254.94
2023-02-12T11:48:31.557Z,98250.69
2023-02-12T11:51:02.859Z,98250.91
2023-02-12T11:53:32.916Z,98252.91
2023-02-12T11:56:02.928Z,98247.78
2023-02-12T11:58:32.465Z,98253.56
2023-02-12T12:01:07.389Z,98249.28
2023-02-12T12:03:40.447Z,98252.09
2023-02-12T12:06:14.272Z,98247.84
2023-02-12T12:08:45.582Z,98245.34
2023-02-12T12:11:17.586Z,98245.41
2023-02-12T12:13:51.113Z,98234.41
2023-02-12T12:16:41.663Z,98234.53
2023-02-12T12:19:31.557Z,98230.13
2023-02-12T12:22:05.360Z,98219.09
2023-02-12T12:24:41.214Z,98226.28
2023-02-12T12:27:41.400Z,98224.28
2023-02-12T12:30:19.735Z,98226.97
2023-02-12T12:32:49.123Z,98230.47
2023-02-12T12:35:20.432Z,98222.66
2023-02-12T12:37:49.870Z,98216.75
2023-02-12T12:40:27.347Z,98211.59
2023-02-12T12:43:04.740Z,98215.91
2023-02-12T12:45:48.761Z,98201.34
2023-02-12T12:48:27.092Z,98202.13
2023-02-12T12:51:09.547Z,98203.69
2023-02-12T12:53:47.657Z,98204.44
2023-02-12T12:56:39.346Z,98207.84
2023-02-12T12:59:26.080Z,98206.16
2023-02-12T13:02:31.162Z,98208.66
2023-02-12T13:05:20.231Z,98215.19
2023-02-12T13:07:56.635Z,98215.69
2023-02-12T13:10:33.514Z,98207.72
2023-02-12T13:13:23.383Z,98219.78
2023-02-12T13:15:57.488Z,98211.47
2023-02-12T13:18:34.410Z,98220.13
2023-02-12T13:21:06.001Z,98222.50
2023-02-12T13:23:39.164Z,98228.59
2023-02-12T13:26:14.509Z,98236.25
2023-02-12T13:28:44.925Z,98235.50
2023-02-12T13:31:32.661Z,98227.97
2023-02-12T13:34:05.568Z,98232.97
2023-02-12T13:36:34.738Z,98232.19
2023-02-12T13:39:08.905Z,98224.78
2023-02-12T13:41:37.409Z,98226.31
2023-02-12T13:44:17.504Z,98231.69
2023-02-12T13:46:52.549Z,98223.28
2023-02-12T13:49:32.722Z,98229.72
2023-02-12T13:52:04.286Z,98225.47
2023-02-12T13:54:47.358Z,98225.50
2023-02-12T13:57:17.207Z,98219.03
2023-02-12T13:59:50.099Z,98226.53
2023-02-12T14:02:52.088Z,98217.94
2023-02-12T14:05:27.694Z,98212.84
2023-02-12T14:07:57.795Z,98221.25
2023-02-12T14:10:28.484Z,98215.72
2023-02-12T14:12:58.324Z,98216.63
2023-02-12T14:15:33.939Z,98220.66
2023-02-12T14:18:39.573Z,98223.94
2023-02-12T14:21:45.855Z,98218.16
2023-02-12T14:24:52.639Z,98215.47
2023-02-12T14:27:25.929Z,98218.16
2023-02-12T14:30:25.829Z,98218.91
2023-02-12T14:32:59.921Z,98214.81
2023-02-12T14:35:35.417Z,98218.19
2023-02-12T14:38:04.798Z,98216.56
2023-02-12T14:40:44.267Z,98213.19
2023-02-12T14:43:34.003Z,98224.78
2023-02-12T14:46:34.973Z,98226.50
2023-02-12T14:49:05.940Z,98219.72
2023-02-12T14:51:39.180Z,98220.69
2023-02-12T14:54:15.254Z,98229.28
2023-02-12T14:56:47.076Z,98225.16
2023-02-12T14:59:19.050Z,98224.34
2023-02-12T15:01:47.406Z,98224.59
2023-02-12T15:04:20.664Z,98217.94
2023-02-12T15:06:52.327Z,98233.69
2023-02-12T15:09:24.015Z,98234.50
2023-02-12T15:12:04.312Z,98237.13
2023-02-12T15:14:36.869Z,98235.38
2023-02-12T15:17:10.107Z,98230.22
2023-02-12T15:19:43.951Z,98230.03
2023-02-12T15:22:23.660Z,98230.88
2023-02-12T15:24:52.065Z,98233.63
2023-02-12T15:27:21.047Z,98238.66
2023-02-12T15:29:52.545Z,98232.81
2023-02-12T15:32:24.699Z,98234.59
2023-02-12T15:34:52.887Z,98228.84
2023-02-12T15:37:24.466Z,98228.91
2023-02-12T15:39:54.556Z,98233.75
2023-02-12T15:42:28.611Z,98234.84
2023-02-12T15:45:09.637Z,98232.38
2023-02-12T15:47:37.537Z,98233.44
2023-02-12T15:50:06.207Z,98236.00
2023-02-12T15:52:36.248Z,98235.22
2023-02-12T15:55:05.620Z,98236.09
2023-02-12T15:57:33.833Z,98240.31
2023-02-12T16:00:08.430Z,98232.81
2023-02-12T16:02:36.352Z,98232.78
2023-02-12T16:05:05.821Z,98232.72
2023-02-12T16:07:37.229Z,98234.44
2023-02-12T16:10:06.195Z,98235.78
2023-02-12T16:12:37.587Z,98241.72
2023-02-12T16:15:08.957Z,98235.22
2023-02-12T16:17:38.337Z,98237.06
2023-02-12T16:20:24.810Z,98240.34
2023-02-12T16:22:53.373Z,98244.53
2023-02-12T16:25:24.398Z,98242.25
2023-02-12T16:28:00.371Z,98244.81
2023-02-12T16:30:31.574Z,98249.09
2023-02-12T16:32:59.796Z,98251.63
2023-02-12T16:35:30.715Z,98253.31
2023-02-12T16:38:04.291Z,98253.34
2023-02-12T16:40:35.066Z,98250.78
2023-02-12T16:43:07.871Z,98260.13
2023-02-12T16:45:42.604Z,98260.16
2023-02-12T16:48:16.937Z,98258.53
2023-02-12T16:50:49.157Z,98266.91
2023-02-12T16:53:43.037Z,98270.28
2023-02-12T16:56:18.111Z,98276.06
2023-02-12T16:58:48.405Z,98271.03
2023-02-12T17:01:20.393Z,98273.56
2023-02-12T17:03:50.520Z,98283.00
2023-02-12T17:06:24.322Z,98276.16
2023-02-12T17:08:52.585Z,98282.00
2023-02-12T17:11:21.037Z,98282.75
2023-02-12T17:13:50.794Z,98279.50
2023-02-12T17:16:30.400Z,98277.91
2023-02-12T17:18:59.717Z,98272.88
2023-02-12T17:21:29.428Z,98272.00
2023-02-12T17:23:57.363Z,98268.63
2023-02-12T17:26:26.045Z,98267.81
2023-02-12T17:28:53.942Z,98278.81
2023-02-12T17:31:24.301Z,98277.13
2023-02-12T17:33:52.245Z,98266.16
2023-02-12T17:36:21.096Z,98274.63
2023-02-12T17:38:51.176Z,98281.19
2023-02-12T17:41:19.323Z,98283.75
2023-02-12T17:43:47.451Z,98280.50
2023-02-12T17:46:20.310Z,98271.13
2023-02-12T17:48:49.693Z,98283.69
2023-02-12T17:51:17.884Z,98273.75
2023-02-12T17:53:46.375Z,98283.13
2023-02-12T17:56:16.118Z,98271.28
2023-02-12T17:58:44.290Z,98265.34
2023-02-12T18:01:14.982Z,98272.13
2023-02-12T18:03:43.225Z,98271.38
2023-02-12T18:06:14.265Z,98270.41
2023-02-12T18:08:42.259Z,98270.44
2023-02-12T18:11:11.706Z,98280.53
2023-02-12T18:13:41.044Z,98284.78
2023-02-12T18:16:10.391Z,98276.31
2023-02-12T18:18:40.086Z,98270.41
2023-02-12T18:21:08.893Z,98275.44
2023-02-12T18:23:38.477Z,98282.09
2023-02-12T18:26:07.785Z,98284.69
2023-02-12T18:28:36.520Z,98283.94
2023-02-12T18:31:05.573Z,98283.09
2023-02-12T18:33:33.932Z,98285.66
2023-02-12T18:36:03.173Z,98298.34
2023-02-12T18:38:31.228Z,98290.78
2023-02-12T18:41:00.899Z,98301.72
2023-02-12T18:43:29.192Z,98295.00
2023-02-12T18:45:57.117Z,98288.16
2023-02-12T18:48:25.084Z,98288.16
2023-02-12T18:50:55.279Z,98287.28
2023-02-12T18:53:23.384Z,98293.25
2023-02-12T18:55:52.401Z,98290.72
2023-02-12T18:58:21.667Z,98290.66
2023-02-12T19:00:49.699Z,98293.19
2023-02-12T19:03:17.988Z,98289.81
2023-02-12T19:05:45.896Z,98288.16
2023-02-12T19:08:14.124Z,98285.56
2023-02-12T19:10:42.560Z,98289.06
2023-02-12T19:13:10.664Z,98291.66
2023-02-12T19:15:41.309Z,98293.31
2023-02-12T19:18:09.226Z,98300.03
2023-02-12T19:20:40.887Z,98294.88
2023-02-12T19:23:08.804Z,98296.59
2023-02-12T19:25:39.686Z,98301.69
2023-02-12T19:28:07.608Z,98292.44
2023-02-12T19:30:37.231Z,98289.03
2023-02-12T19:33:07.122Z,98293.28
2023-02-12T19:35:35.541Z,98294.97
2023-02-12T19:38:03.440Z,98295.81
2023-02-12T19:40:32.158Z,98301.72
2023-02-12T19:43:00.056Z,98297.53
2023-02-12T19:45:27.995Z,98285.66
2023-02-12T19:47:55.895Z,98294.16
2023-02-12T19:50:25.194Z,98299.16
2023-02-12T19:52:53.079Z,98289.91
2023-02-12T19:55:21.118Z,98299.22
2023-02-12T19:57:49.741Z,98284.13
2023-02-12T20:00:17.894Z,98290.78
2023-02-12T20:02:45.836Z,98299.22
2023-02-12T20:05:13.765Z,98288.25
2023-02-12T20:07:43.052Z,98282.34
2023-02-12T20:10:13.055Z,98286.56
2023-02-12T20:12:41.208Z,98295.03
2023-02-12T20:15:09.950Z,98293.38
2023-02-12T20:17:37.846Z,98288.22
2023-02-12T20:20:07.454Z,98291.59
2023-02-12T20:22:36.817Z,98284.84
2023-02-12T20:25:06.580Z,98294.19
2023-02-12T20:27:35.365Z,98301.78
2023-02-12T20:30:03.286Z,98300.03
2023-02-12T20:32:31.155Z,98291.63
2023-02-12T20:34:59.068Z,98300.06
2023-02-12T20:37:26.961Z,98296.75
2023-02-12T20:39:54.848Z,98299.25
2023-02-12T20:42:24.124Z,98300.13
2023-02-12T20:44:52.009Z,98295.06
2023-02-12T20:47:19.912Z,98294.19
2023-02-12T20:49:47.799Z,98300.06
2023-02-12T20:52:15.823Z,98303.41
2023-02-12T20:54:43.826Z,98302.63
2023-02-12T20:57:12.120Z,98306.00
2023-02-12T20:59:41.620Z,98300.94
2023-02-12T21:02:10.967Z,98300.94
2023-02-12T21:04:39.017Z,98296.72
2023-02-12T21:07:06.924Z,98306.81
2023-02-12T21:09:34.862Z,98306.81
2023-02-12T21:12:02.779Z,98314.41
2023-02-12T21:14:30.703Z,98306.81
2023-02-12T21:16:59.967Z,98307.59
2023-02-12T21:19:28.318Z,98305.94
2023-02-12T21:21:56.478Z,98302.56
2023-02-12T21:24:26.415Z,98309.25
2023-02-12T21:26:54.988Z,98305.94
2023-02-12T21:29:23.448Z,98303.41
2023-02-12T21:31:51.896Z,98305.13
2023-02-12T21:34:23.108Z,98306.81
2023-02-12T21:36:51.788Z,98304.28
2023-02-12T21:39:24.877Z,98300.94
2023-02-12T21:41:54.640Z,98299.22
2023-02-12T21:44:23.469Z,98301.72
2023-02-12T21:46:51.478Z,98299.22
2023-02-12T21:49:26.593Z,98300.06
2023-02-12T21:51:56.047Z,98297.56
2023-02-12T21:54:24.113Z,98285.81
2023-02-12T21:56:52.558Z,98291.66
2023-02-12T21:59:20.831Z,98293.38
2023-02-12T22:01:49.973Z,98288.31
2023-02-12T22:04:18.816Z,98290.84
2023-02-12T22:06:49.733Z,98293.38
2023-02-12T22:09:19.531Z,98289.16
2023-02-12T22:11:47.441Z,98290.81
2023-02-12T22:14:16.834Z,98285.78
2023-02-12T22:16:45.504Z,98284.97
2023-02-12T22:19:13.507Z,98295.94
2023-02-12T22:21:42.388Z,98286.66
2023-02-12T22:24:14.676Z,98284.94
2023-02-12T22:26:42.956Z,98291.72
2023-02-12T22:29:12.141Z,98295.09
2023-02-12T22:31:41.541Z,98300.94
2023-02-12T22:34:13.112Z,98293.38
2023-02-12T22:36:41.371Z,98297.59
2023-02-12T22:39:11.386Z,98293.38
2023-02-12T22:41:39.982Z,98300.06
2023-02-12T22:44:08.014Z,98293.41
2023-02-12T22:46:36.227Z,98290.00
2023-02-12T22:49:04.241Z,98295.91
2023-02-12T22:51:33.455Z,98283.28
2023-02-12T22:54:01.923Z,98286.63
2023-02-12T22:56:31.180Z,98281.56
2023-02-12T22:59:00.641Z,98281.56
2023-02-12T23:01:29.408Z,98289.94
2023-02-12T23:03:57.443Z,98278.97
2023-02-12T23:06:27.910Z,98295.88
2023-02-12T23:08:58.926Z,98286.66
2023-02-12T23:11:28.115Z,98293.41
2023-02-12T23:13:58.133Z,98294.25
2023-02-12T23:16:26.374Z,98288.34
2023-02-12T23:18:56.694Z,98279.94
2023-02-12T23:21:25.944Z,98269.03
2023-02-12T23:23:53.971Z,98274.91
2023-02-12T23:26:22.006Z,98277.44
2023-02-12T23:28:49.920Z,98285.84
2023-02-12T23:31:19.302Z,98282.47
2023-02-12T23:33:47.316Z,98289.19
2023-02-12T23:36:15.316Z,98271.53
2023-02-12T23:38:43.224Z,98279.09
2023-02-12T23:41:11.424Z,98274.84
2023-02-12T23:43:39.298Z,98275.72
2023-02-12T23:46:08.242Z,98276.53
2023-02-12T23:48:37.575Z,98271.53
2023-02-12T23:51:05.929Z,98264.75
2023-02-12T23:53:33.826Z,98269.00
2023-02-12T23:56:01.716Z,98259.78
2023-02-12T23:58:29.747Z,98264.84
